createdAt,value
2022-11-15T00:02:44.168Z,13.07
2022-11-15T00:05:30.992Z,12.57
2022-11-15T00:08:18.760Z,16.20
2022-11-15T00:11:06.207Z,14.07
2022-11-15T00:13:57.107Z,14.03
2022-11-15T00:16:44.215Z,12.80
2022-11-15T00:19:31.343Z,10.50
2022-11-15T00:22:18.436Z,11.37
2022-11-15T00:25:06.115Z,11.47
2022-11-15T00:27:53.463Z,11.90
2022-11-15T00:30:41.706Z,12.17
2022-11-15T00:33:29.225Z,11.47
2022-11-15T00:36:16.834Z,10.50
2022-11-15T00:39:05.773Z,13.67
2022-11-15T00:41:52.700Z,13.27
2022-11-15T00:44:39.944Z,11.80
2022-11-15T00:47:28.475Z,16.07
2022-11-15T00:50:15.826Z,13.17
2022-11-15T00:53:02.816Z,17.37
2022-11-15T00:55:49.921Z,11.73
2022-11-15T00:58:37.290Z,13.77
2022-11-15T01:01:24.433Z,13.30
2022-11-15T01:04:13.071Z,12.47
2022-11-15T01:06:59.913Z,13.90
2022-11-15T01:09:47.111Z,11.70
2022-11-15T01:12:34.555Z,12.83
2022-11-15T01:15:21.780Z,9.70
2022-11-15T01:18:08.715Z,10.83
2022-11-15T01:20:57.475Z,10.63
2022-11-15T01:23:45.827Z,10.17
2022-11-15T01:26:33.022Z,10.67
2022-11-15T01:29:20.236Z,15.03
2022-11-15T01:32:07.550Z,12.87
2022-11-15T01:34:55.097Z,10.53
2022-11-15T01:37:43.190Z,13.33
2022-11-15T01:40:30.405Z,14.27
2022-11-15T01:43:21.870Z,12.57
2022-11-15T01:46:27.008Z,11.70
2022-11-15T01:49:16.491Z,11.67
2022-11-15T01:52:06.238Z,15.00
2022-11-15T01:54:57.252Z,12.47
2022-11-15T01:57:46.494Z,11.67
2022-11-15T02:00:33.621Z,10.40
2022-11-15T02:03:21.304Z,11.80
2022-11-15T02:06:08.761Z,11.87
2022-11-15T02:08:57.115Z,12.73
2022-11-15T02:11:46.439Z,12.07
2022-11-15T02:14:34.689Z,11.10
2022-11-15T02:17:36.565Z,12.13
2022-11-15T02:20:49.466Z,11.27
2022-11-15T02:24:06.433Z,11.67
2022-11-15T02:27:58.885Z,11.57
2022-11-15T02:30:48.272Z,11.53
2022-11-15T02:33:42.104Z,9.73
2022-11-15T02:36:37.956Z,11.80
2022-11-15T02:39:30.690Z,9.40
2022-11-15T02:42:35.833Z,13.90
2022-11-15T02:45:27.172Z,10.57
2022-11-15T02:48:16.303Z,12.17
2022-11-15T02:51:03.321Z,14.97
2022-11-15T02:53:50.294Z,11.03
2022-11-15T02:56:37.559Z,10.47
2022-11-15T02:59:40.432Z,11.50
2022-11-15T03:02:38.766Z,13.93
2022-11-15T03:05:34.237Z,10.30
2022-11-15T03:08:25.402Z,11.17
2022-11-15T03:11:14.410Z,9.40
2022-11-15T03:14:03.687Z,11.37
2022-11-15T03:16:53.364Z,9.93
2022-11-15T03:19:44.780Z,9.60
2022-11-15T03:22:37.533Z,11.53
2022-11-15T03:25:26.719Z,11.63
2022-11-15T03:28:24.072Z,14.37
2022-11-15T03:31:27.875Z,10.10
2022-11-15T03:34:21.676Z,10.33
2022-11-15T03:37:09.450Z,10.37
2022-11-15T03:39:58.016Z,10.90
2022-11-15T03:42:49.098Z,10.20
2022-11-15T03:45:42.011Z,11.83
2022-11-15T03:48:35.169Z,11.37
2022-11-15T03:51:22.287Z,11.97
2022-11-15T03:54:09.434Z,9.93
2022-11-15T03:56:57.863Z,11.93
2022-11-15T03:59:45.241Z,9.90
2022-11-15T04:02:33.072Z,9.80
2022-11-15T04:05:20.239Z,10.43
2022-11-15T04:08:07.573Z,10.83
2022-11-15T04:10:54.766Z,11.77
2022-11-15T04:13:43.121Z,12.47
2022-11-15T04:16:30.297Z,11.93
2022-11-15T04:19:35.040Z,14.93
2022-11-15T04:22:38.920Z,10.90
2022-11-15T04:25:31.097Z,12.57
2022-11-15T04:28:19.908Z,14.00
2022-11-15T04:31:08.396Z,12.03
2022-11-15T04:33:55.485Z,11.83
2022-11-15T04:36:59.466Z,12.20
2022-11-15T04:39:46.718Z,11.60
2022-11-15T04:42:33.826Z,11.10
2022-11-15T04:45:21.278Z,12.87
2022-11-15T04:48:09.396Z,11.57
2022-11-15T04:50:56.607Z,13.20
2022-11-15T04:53:43.654Z,11.17
2022-11-15T04:56:30.803Z,10.77
2022-11-15T04:59:18.074Z,12.90
2022-11-15T05:02:05.355Z,12.57
2022-11-15T05:04:53.038Z,11.20
2022-11-15T05:07:40.307Z,11.97
2022-11-15T05:10:27.390Z,12.10
2022-11-15T05:13:14.632Z,13.40
2022-11-15T05:16:01.875Z,17.10
2022-11-15T05:18:49.007Z,13.73
2022-11-15T05:21:38.209Z,11.70
2022-11-15T05:24:25.832Z,11.53
2022-11-15T05:27:12.952Z,15.07
2022-11-15T05:30:00.143Z,12.00
2022-11-15T05:32:47.390Z,14.93
2022-11-15T05:35:37.377Z,16.23
2022-11-15T05:38:25.559Z,20.17
2022-11-15T05:41:12.981Z,11.77
2022-11-15T05:44:00.473Z,14.83
2022-11-15T05:46:48.553Z,16.47
2022-11-15T05:49:38.285Z,14.00
2022-11-15T05:52:27.809Z,47.17
2022-11-15T05:55:16.384Z,25.87
2022-11-15T05:58:03.395Z,30.27
2022-11-15T06:00:50.619Z,21.37
2022-11-15T06:03:37.898Z,16.90
2022-11-15T06:06:24.994Z,15.90
2022-11-15T06:09:12.365Z,14.73
2022-11-15T06:12:00.883Z,13.73
2022-11-15T06:14:48.087Z,15.53
2022-11-15T06:17:35.272Z,15.40
2022-11-15T06:20:23.190Z,12.50
2022-11-15T06:23:10.580Z,16.33
2022-11-15T06:25:59.751Z,13.27
2022-11-15T06:28:48.103Z,15.73
2022-11-15T06:31:36.017Z,13.90
2022-11-15T06:34:23.458Z,13.50
2022-11-15T06:37:10.523Z,16.33
2022-11-15T06:39:57.514Z,15.50
2022-11-15T06:42:45.038Z,14.03
2022-11-15T06:45:34.013Z,15.97
2022-11-15T06:48:21.179Z,15.97
2022-11-15T06:51:09.137Z,13.43
2022-11-15T06:53:56.478Z,18.13
2022-11-15T06:56:43.548Z,21.73
2022-11-15T06:59:30.699Z,15.20
2022-11-15T07:02:19.715Z,18.00
2022-11-15T07:05:07.997Z,12.23
2022-11-15T07:07:55.628Z,13.83
2022-11-15T07:10:42.961Z,14.37
2022-11-15T07:13:34.693Z,20.03
2022-11-15T07:16:22.511Z,18.13
2022-11-15T07:19:12.006Z,16.13
2022-11-15T07:21:59.310Z,16.73
2022-11-15T07:24:46.417Z,17.80
2022-11-15T07:27:33.709Z,18.87
2022-11-15T07:30:21.039Z,15.13
2022-11-15T07:33:07.881Z,21.40
2022-11-15T07:36:00.816Z,16.37
2022-11-15T07:38:47.750Z,18.07
2022-11-15T07:41:35.058Z,16.97
2022-11-15T07:44:22.323Z,17.40
2022-11-15T07:47:09.513Z,14.67
2022-11-15T07:49:56.858Z,15.83
2022-11-15T07:52:45.889Z,13.70
2022-11-15T07:55:33.165Z,13.73
2022-11-15T07:58:20.141Z,14.03
2022-11-15T08:01:07.791Z,12.40
2022-11-15T08:03:55.043Z,16.03
2022-11-15T08:06:42.274Z,12.27
2022-11-15T08:09:30.776Z,13.67
2022-11-15T08:12:18.091Z,12.23
2022-11-15T08:15:05.704Z,13.23
2022-11-15T08:17:56.011Z,13.57
2022-11-15T08:20:43.899Z,17.10
2022-11-15T08:23:33.183Z,13.03
2022-11-15T08:26:21.964Z,13.17
2022-11-15T08:29:09.655Z,11.97
2022-11-15T08:31:57.142Z,12.57
2022-11-15T08:34:44.208Z,13.37
2022-11-15T08:37:31.574Z,11.80
2022-11-15T08:40:19.682Z,14.33
2022-11-15T08:43:08.360Z,10.53
2022-11-15T08:45:57.751Z,12.33
2022-11-15T08:48:45.177Z,11.57
2022-11-15T08:51:32.272Z,11.23
2022-11-15T08:54:19.467Z,10.53
2022-11-15T08:57:06.331Z,11.07
2022-11-15T08:59:54.906Z,11.53
2022-11-15T09:02:42.277Z,9.20
2022-11-15T09:05:29.299Z,11.13
2022-11-15T09:08:40.687Z,9.67
2022-11-15T09:11:24.562Z,11.80
2022-11-15T09:14:13.183Z,9.67
2022-11-15T09:17:02.079Z,17.53
2022-11-15T09:19:49.103Z,13.23
2022-11-15T09:22:37.424Z,8.40
2022-11-15T09:25:24.439Z,10.07
2022-11-15T09:28:11.681Z,7.77
2022-11-15T09:31:00.692Z,8.23
2022-11-15T09:33:49.098Z,8.17
2022-11-15T09:36:36.374Z,8.57
2022-11-15T09:39:23.269Z,7.47
2022-11-15T09:42:28.154Z,8.37
2022-11-15T09:45:20.512Z,8.33
2022-11-15T09:48:35.790Z,7.37
2022-11-15T09:51:31.192Z,11.17
2022-11-15T09:57:08.424Z,9.87
2022-11-15T09:59:57.021Z,8.23
2022-11-15T10:02:38.961Z,7.03
2022-11-15T10:05:10.479Z,9.77
2022-11-15T10:07:48.924Z,7.87
2022-11-15T10:10:25.155Z,10.57
2022-11-15T10:12:54.284Z,9.20
2022-11-15T10:15:24.315Z,9.30
2022-11-15T10:18:09.769Z,9.53
2022-11-15T10:20:48.876Z,7.83
2022-11-15T10:23:21.221Z,8.57
2022-11-15T10:25:49.775Z,10.00
2022-11-15T10:28:20.239Z,8.53
2022-11-15T10:30:50.480Z,10.07
2022-11-15T10:33:35.469Z,8.33
2022-11-15T10:36:23.130Z,9.60
2022-11-15T10:38:59.881Z,9.00
2022-11-15T10:41:39.524Z,8.07
2022-11-15T10:44:23.651Z,8.27
2022-11-15T10:47:23.404Z,8.90
2022-11-15T10:50:03.663Z,8.30
2022-11-15T10:52:34.052Z,8.07
2022-11-15T10:55:15.046Z,11.77
2022-11-15T10:57:51.257Z,12.37
2022-11-15T11:00:30.399Z,11.57
2022-11-15T11:03:01.569Z,12.60
2022-11-15T11:05:37.890Z,6.50
2022-11-15T11:08:23.782Z,6.87
2022-11-15T11:11:02.221Z,7.83
2022-11-15T11:13:33.375Z,9.33
2022-11-15T11:16:11.841Z,6.73
2022-11-15T11:18:45.554Z,6.47
2022-11-15T11:21:17.272Z,9.17
2022-11-15T11:23:51.748Z,6.07
2022-11-15T11:26:35.204Z,10.67
2022-11-15T11:29:12.516Z,7.90
2022-11-15T11:31:48.506Z,7.30
2022-11-15T11:34:23.023Z,7.80
2022-11-15T11:37:00.786Z,6.97
2022-11-15T11:39:34.021Z,6.87
2022-11-15T11:42:12.189Z,7.77
2022-11-15T11:44:48.964Z,7.80
2022-11-15T11:47:21.264Z,7.07
2022-11-15T11:49:53.383Z,7.50
2022-11-15T11:52:27.865Z,6.73
2022-11-15T11:55:01.476Z,12.17
2022-11-15T11:57:36.548Z,8.13
2022-11-15T12:00:12.429Z,8.50
2022-11-15T12:02:46.946Z,9.70
2022-11-15T12:05:20.646Z,8.10
2022-11-15T12:07:51.810Z,7.67
2022-11-15T12:10:24.392Z,9.40
2022-11-15T12:13:00.857Z,9.73
2022-11-15T12:15:32.068Z,6.87
2022-11-15T12:18:02.509Z,6.33
2022-11-15T12:20:34.372Z,8.73
2022-11-15T12:23:07.179Z,7.47
2022-11-15T12:25:39.201Z,9.27
2022-11-15T12:28:16.006Z,11.17
2022-11-15T12:30:47.964Z,7.10
2022-11-15T12:33:33.752Z,7.73
2022-11-15T12:36:04.174Z,8.10
2022-11-15T12:38:59.502Z,8.83
2022-11-15T12:41:29.366Z,10.13
2022-11-15T12:44:00.069Z,9.93
2022-11-15T12:47:05.982Z,13.57
2022-11-15T12:49:48.014Z,9.37
2022-11-15T12:52:17.347Z,12.10
2022-11-15T12:55:30.293Z,7.10
2022-11-15T12:58:45.578Z,9.53
2022-11-15T13:01:55.349Z,8.47
2022-11-15T13:04:27.171Z,10.70
2022-11-15T13:06:57.122Z,7.83
2022-11-15T13:09:52.264Z,10.57
2022-11-15T13:12:54.173Z,8.33
2022-11-15T13:15:45.405Z,8.70
2022-11-15T13:18:36.377Z,10.87
2022-11-15T13:21:29.470Z,10.17
2022-11-15T13:23:58.047Z,11.80
2022-11-15T13:26:26.540Z,8.53
2022-11-15T13:28:56.904Z,26.30
2022-11-15T13:31:42.461Z,7.83
2022-11-15T13:34:50.494Z,10.43
2022-11-15T13:37:31.195Z,10.13
2022-11-15T13:40:18.504Z,10.30
2022-11-15T13:42:46.996Z,8.70
2022-11-15T13:45:17.894Z,9.03
2022-11-15T13:47:53.532Z,10.93
2022-11-15T13:50:24.074Z,8.97
2022-11-15T13:52:52.763Z,8.47
2022-11-15T13:55:23.162Z,8.07
2022-11-15T13:57:55.119Z,10.23
2022-11-15T14:00:31.010Z,9.20
2022-11-15T14:03:08.192Z,9.30
2022-11-15T14:05:36.742Z,10.17
2022-11-15T14:08:15.855Z,8.60
2022-11-15T14:10:44.397Z,11.70
2022-11-15T14:13:29.228Z,15.07
2022-11-15T14:16:14.921Z,10.50
2022-11-15T14:18:48.141Z,15.03
2022-11-15T14:21:17.357Z,19.67
2022-11-15T14:23:46.168Z,11.63
2022-11-15T14:26:29.437Z,13.87
2022-11-15T14:28:58.088Z,13.73
2022-11-15T14:31:26.709Z,13.53
2022-11-15T14:33:56.717Z,12.70
2022-11-15T14:36:25.413Z,12.07
2022-11-15T14:38:55.238Z,10.60
2022-11-15T14:41:25.757Z,10.87
2022-11-15T14:43:54.659Z,12.10
2022-11-15T14:46:23.450Z,14.53
2022-11-15T14:48:52.023Z,14.00
2022-11-15T14:51:21.958Z,14.67
2022-11-15T14:53:50.801Z,15.37
2022-11-15T14:56:19.313Z,16.93
2022-11-15T14:58:48.055Z,11.47
2022-11-15T15:01:20.323Z,17.10
2022-11-15T15:03:49.126Z,16.87
2022-11-15T15:06:18.691Z,13.07
2022-11-15T15:08:51.297Z,12.30
2022-11-15T15:11:23.501Z,14.87
2022-11-15T15:13:53.095Z,16.33
2022-11-15T15:16:22.109Z,14.53
2022-11-15T15:18:50.918Z,19.07
2022-11-15T15:21:23.335Z,22.13
2022-11-15T15:23:54.933Z,14.53
2022-11-15T15:26:23.770Z,21.37
2022-11-15T15:28:52.690Z,13.97
2022-11-15T15:31:21.406Z,17.27
2022-11-15T15:33:49.998Z,19.03
2022-11-15T15:36:20.881Z,16.07
2022-11-15T15:38:49.480Z,20.67
2022-11-15T15:41:19.843Z,17.77
2022-11-15T15:43:48.643Z,19.07
2022-11-15T15:46:18.818Z,14.07
2022-11-15T15:48:47.572Z,9.83
2022-11-15T15:51:20.488Z,15.80
2022-11-15T15:53:51.675Z,15.27
2022-11-15T15:56:21.951Z,9.37
2022-11-15T15:58:50.561Z,11.90
2022-11-15T16:01:20.153Z,13.40
2022-11-15T16:03:48.921Z,13.67
2022-11-15T16:06:43.248Z,13.10
2022-11-15T16:09:16.383Z,15.37
2022-11-15T16:11:48.036Z,17.20
2022-11-15T16:14:16.590Z,15.57
2022-11-15T16:16:45.142Z,13.93
2022-11-15T16:19:14.161Z,16.73
2022-11-15T16:21:43.021Z,12.30
2022-11-15T16:24:11.649Z,13.00
2022-11-15T16:26:40.477Z,14.23
2022-11-15T16:29:12.273Z,11.97
2022-11-15T16:31:40.953Z,12.40
2022-11-15T16:34:09.565Z,13.47
2022-11-15T16:36:38.189Z,18.73
2022-11-15T16:39:06.670Z,19.60
2022-11-15T16:41:35.297Z,17.87
2022-11-15T16:44:03.875Z,21.33
2022-11-15T16:46:33.818Z,15.63
2022-11-15T16:49:02.838Z,16.40
2022-11-15T16:51:31.462Z,20.07
2022-11-15T16:53:59.995Z,14.10
2022-11-15T16:56:29.675Z,18.83
2022-11-15T16:58:59.599Z,23.80
2022-11-15T17:01:29.927Z,24.07
2022-11-15T17:04:12.415Z,20.30
2022-11-15T17:06:41.380Z,25.63
2022-11-15T17:09:12.371Z,28.37
2022-11-15T17:11:44.429Z,27.10
2022-11-15T17:14:13.707Z,31.73
2022-11-15T17:16:44.832Z,24.13
2022-11-15T17:19:17.017Z,25.53
2022-11-15T17:21:46.530Z,31.27
2022-11-15T17:24:15.107Z,25.77
2022-11-15T17:26:43.875Z,27.97
2022-11-15T17:29:12.469Z,25.07
2022-11-15T17:31:41.006Z,28.53
2022-11-15T17:34:09.688Z,28.53
2022-11-15T17:36:39.625Z,29.87
2022-11-15T17:39:08.390Z,31.37
2022-11-15T17:41:36.951Z,33.27
2022-11-15T17:44:05.987Z,36.57
2022-11-15T17:46:36.381Z,28.87
2022-11-15T17:49:05.030Z,29.33
2022-11-15T17:51:39.388Z,26.10
2022-11-15T17:54:07.941Z,21.53
2022-11-15T17:56:40.004Z,21.80
2022-11-15T17:59:13.723Z,21.57
2022-11-15T18:01:44.660Z,19.53
2022-11-15T18:04:14.930Z,22.40
2022-11-15T18:06:45.056Z,20.50
2022-11-15T18:09:13.784Z,17.27
2022-11-15T18:11:44.852Z,19.13
2022-11-15T18:14:15.486Z,17.23
2022-11-15T18:16:44.055Z,23.93
2022-11-15T18:19:13.949Z,17.23
2022-11-15T18:21:57.395Z,17.60
2022-11-15T18:24:26.819Z,16.77
2022-11-15T18:26:55.434Z,21.03
2022-11-15T18:29:25.498Z,21.90
2022-11-15T18:31:56.174Z,24.73
2022-11-15T18:34:25.542Z,21.83
2022-11-15T18:36:55.752Z,21.57
2022-11-15T18:39:24.337Z,20.93
2022-11-15T18:41:52.862Z,22.63
2022-11-15T18:44:21.433Z,22.27
2022-11-15T18:46:50.954Z,24.07
2022-11-15T18:49:20.676Z,19.47
2022-11-15T18:51:49.469Z,17.67
2022-11-15T18:54:19.506Z,17.97
2022-11-15T18:56:48.311Z,14.97
2022-11-15T18:59:17.315Z,20.33
2022-11-15T19:01:52.199Z,18.43
2022-11-15T19:04:22.569Z,20.63
2022-11-15T19:06:53.528Z,20.13
2022-11-15T19:09:27.229Z,20.43
2022-11-15T19:11:55.907Z,18.93
2022-11-15T19:14:26.187Z,21.20
2022-11-15T19:16:55.682Z,19.30
2022-11-15T19:19:25.869Z,19.17
2022-11-15T19:21:55.056Z,19.53
2022-11-15T19:24:24.990Z,17.13
2022-11-15T19:26:54.861Z,19.07
2022-11-15T19:29:23.578Z,16.73
2022-11-15T19:31:52.213Z,17.57
2022-11-15T19:34:20.897Z,20.23
2022-11-15T19:36:49.686Z,19.37
2022-11-15T19:39:18.773Z,19.07
2022-11-15T19:41:50.060Z,18.23
2022-11-15T19:44:18.952Z,21.33
2022-11-15T19:46:47.894Z,19.53
2022-11-15T19:49:16.469Z,18.50
2022-11-15T19:51:47.211Z,16.53
2022-11-15T19:54:17.552Z,19.33
2022-11-15T19:56:46.657Z,18.73
2022-11-15T19:59:17.388Z,18.47
2022-11-15T20:01:45.939Z,20.93
2022-11-15T20:04:14.548Z,20.23
2022-11-15T20:06:44.212Z,20.80
2022-11-15T20:09:14.337Z,19.70
2022-11-15T20:11:42.824Z,19.50
2022-11-15T20:14:13.006Z,18.80
2022-11-15T20:16:43.046Z,20.03
2022-11-15T20:19:12.546Z,20.27
2022-11-15T20:21:41.594Z,20.10
2022-11-15T20:24:10.392Z,17.37
2022-11-15T20:26:39.381Z,18.80
2022-11-15T20:29:09.921Z,19.63
2022-11-15T20:31:38.628Z,18.23
2022-11-15T20:34:08.702Z,19.63
2022-11-15T20:36:37.341Z,16.10
2022-11-15T20:39:05.974Z,28.10
2022-11-15T20:41:34.572Z,44.70
2022-11-15T20:44:03.957Z,33.30
2022-11-15T20:46:32.463Z,16.37
2022-11-15T20:49:01.331Z,16.43
2022-11-15T20:51:31.247Z,17.77
2022-11-15T20:53:59.918Z,18.37
2022-11-15T20:56:28.484Z,18.47
2022-11-15T20:58:57.502Z,17.70
2022-11-15T21:01:26.225Z,18.67
2022-11-15T21:03:55.563Z,17.30
2022-11-15T21:06:25.532Z,21.83
2022-11-15T21:09:21.763Z,17.93
2022-11-15T21:12:16.249Z,19.40
2022-11-15T21:14:46.432Z,17.40
2022-11-15T21:17:15.489Z,19.07
2022-11-15T21:19:44.471Z,21.07
2022-11-15T21:22:14.650Z,28.20
2022-11-15T21:24:44.575Z,35.23
2022-11-15T21:27:13.162Z,28.40
2022-11-15T21:29:45.489Z,22.40
2022-11-15T21:32:14.045Z,21.27
2022-11-15T21:34:42.675Z,17.40
2022-11-15T21:37:11.518Z,19.23
2022-11-15T21:39:40.361Z,18.00
2022-11-15T21:42:10.359Z,20.60
2022-11-15T21:44:38.882Z,21.73
2022-11-15T21:47:07.496Z,23.57
2022-11-15T21:49:36.055Z,24.47
2022-11-15T21:52:04.740Z,23.37
2022-11-15T21:54:33.239Z,20.13
2022-11-15T21:57:01.852Z,22.93
2022-11-15T21:59:31.770Z,21.77
2022-11-15T22:02:14.641Z,18.97
2022-11-15T22:04:43.681Z,17.63
2022-11-15T22:07:12.261Z,19.03
2022-11-15T22:09:40.846Z,19.23
2022-11-15T22:12:09.881Z,17.67
2022-11-15T22:14:40.013Z,20.77
2022-11-15T22:17:08.677Z,19.87
2022-11-15T22:19:51.627Z,19.70
2022-11-15T22:22:21.092Z,17.63
2022-11-15T22:24:49.764Z,18.90
2022-11-15T22:27:18.539Z,17.13
2022-11-15T22:29:48.580Z,18.10
2022-11-15T22:32:17.069Z,22.50
2022-11-15T22:34:45.645Z,19.20
2022-11-15T22:37:20.479Z,18.20
2022-11-15T22:39:49.928Z,18.27
2022-11-15T22:42:23.468Z,18.93
2022-11-15T22:44:54.033Z,19.30
2022-11-15T22:47:22.613Z,21.13
2022-11-15T22:49:51.303Z,21.13
2022-11-15T22:52:20.105Z,17.83
2022-11-15T22:54:48.656Z,19.13
2022-11-15T22:57:17.150Z,18.50
2022-11-15T22:59:45.902Z,28.87
2022-11-15T23:02:15.853Z,19.93
2022-11-15T23:04:44.704Z,22.73
2022-11-15T23:07:13.445Z,18.10
2022-11-15T23:09:42.957Z,19.07
2022-11-15T23:12:30.799Z,20.97
2022-11-15T23:14:59.361Z,17.30
2022-11-15T23:17:29.352Z,18.73
2022-11-15T23:20:01.092Z,19.50
2022-11-15T23:22:47.649Z,18.80
2022-11-15T23:25:16.431Z,18.67
2022-11-15T23:27:44.894Z,15.87
2022-11-15T23:30:31.743Z,16.53
2022-11-15T23:33:18.938Z,17.83
2022-11-15T23:35:54.767Z,17.23
2022-11-15T23:38:23.283Z,18.50
2022-11-15T23:40:52.820Z,18.60
2022-11-15T23:43:22.101Z,19.17
2022-11-15T23:45:50.569Z,21.60
2022-11-15T23:48:20.501Z,20.90
2022-11-15T23:50:49.397Z,18.73
2022-11-15T23:53:17.903Z,18.27
2022-11-15T23:55:55.619Z,18.30
2022-11-15T23:58:24.117Z,20.33
